sensor_id;sensor_type;location;lat;lon;timestamp;temperature;humidity
67186;HTU21D;54116;53.518;49.398;2023-07-09T00:02:10;-0.89;118.99
67186;HTU21D;54116;53.518;49.398;2023-07-09T00:04:37;-0.86;118.99
67186;HTU21D;54116;53.518;49.398;2023-07-09T00:07:19;-0.85;118.99
67186;HTU21D;54116;53.518;49.398;2023-07-09T00:09:47;-0.75;118.99
67186;HTU21D;54116;53.518;49.398;2023-07-09T00:12:14;-0.73;118.99
67186;HTU21D;54116;53.518;49.398;2023-07-09T00:14:44;-0.86;118.99
67186;HTU21D;54116;53.518;49.398;2023-07-09T00:17:21;-0.91;118.99
67186;HTU21D;54116;53.518;49.398;2023-07-09T00:19:49;-0.89;118.99
67186;HTU21D;54116;53.518;49.398;2023-07-09T00:22:16;-0.96;118.99
67186;HTU21D;54116;53.518;49.398;2023-07-09T00:24:51;-0.97;118.99
67186;HTU21D;54116;53.518;49.398;2023-07-09T00:27:22;-0.95;118.99
67186;HTU21D;54116;53.518;49.398;2023-07-09T00:29:52;-0.97;118.99
67186;HTU21D;54116;53.518;49.398;2023-07-09T00:32:19;-1.03;118.99
67186;HTU21D;54116;53.518;49.398;2023-07-09T00:34:50;-1.04;118.99
67186;HTU21D;54116;53.518;49.398;2023-07-09T00:37:24;-1.03;118.99
67186;HTU21D;54116;53.518;49.398;2023-07-09T00:39:54;-1.02;118.99
67186;HTU21D;54116;53.518;49.398;2023-07-09T00:42:23;-0.94;118.99
67186;HTU21D;54116;53.518;49.398;2023-07-09T00:44:53;-1.03;118.99
67186;HTU21D;54116;53.518;49.398;2023-07-09T00:50:37;-1.00;118.99
67186;HTU21D;54116;53.518;49.398;2023-07-09T00:53:15;-0.84;118.99
67186;HTU21D;54116;53.518;49.398;2023-07-09T00:55:52;-0.91;118.99
67186;HTU21D;54116;53.518;49.398;2023-07-09T00:58:20;-0.96;118.99
67186;HTU21D;54116;53.518;49.398;2023-07-09T01:00:50;-0.99;118.99
67186;HTU21D;54116;53.518;49.398;2023-07-09T01:03:31;-0.98;118.99
67186;HTU21D;54116;53.518;49.398;2023-07-09T01:05:59;-1.02;118.99
67186;HTU21D;54116;53.518;49.398;2023-07-09T01:08:27;-0.88;118.99
67186;HTU21D;54116;53.518;49.398;2023-07-09T01:10:57;-0.98;118.99
67186;HTU21D;54116;53.518;49.398;2023-07-09T01:13:26;-1.00;118.99
67186;HTU21D;54116;53.518;49.398;2023-07-09T01:15:54;-1.00;118.99
67186;HTU21D;54116;53.518;49.398;2023-07-09T01:18:24;-0.93;118.99
67186;HTU21D;54116;53.518;49.398;2023-07-09T01:21:07;-0.86;118.99
67186;HTU21D;54116;53.518;49.398;2023-07-09T01:23:42;-0.74;118.99
67186;HTU21D;54116;53.518;49.398;2023-07-09T01:26:14;-0.67;118.99
67186;HTU21D;54116;53.518;49.398;2023-07-09T01:28:41;-0.45;118.99
67186;HTU21D;54116;53.518;49.398;2023-07-09T01:31:11;-0.52;118.99
67186;HTU21D;54116;53.518;49.398;2023-07-09T01:33:39;-0.41;118.99
67186;HTU21D;54116;53.518;49.398;2023-07-09T01:36:08;-0.26;118.99
67186;HTU21D;54116;53.518;49.398;2023-07-09T01:38:35;-0.29;118.99
67186;HTU21D;54116;53.518;49.398;2023-07-09T01:41:02;-0.24;118.99
67186;HTU21D;54116;53.518;49.398;2023-07-09T01:43:28;-0.09;118.99
67186;HTU21D;54116;53.518;49.398;2023-07-09T01:45:54;-0.09;118.99
67186;HTU21D;54116;53.518;49.398;2023-07-09T01:48:26;-0.06;118.99
67186;HTU21D;54116;53.518;49.398;2023-07-09T01:50:53;0.01;118.99
67186;HTU21D;54116;53.518;49.398;2023-07-09T01:53:22;0.12;118.99
67186;HTU21D;54116;53.518;49.398;2023-07-09T01:55:50;0.25;118.99
67186;HTU21D;54116;53.518;49.398;2023-07-09T01:58:16;0.40;118.99
67186;HTU21D;54116;53.518;49.398;2023-07-09T02:00:43;0.44;118.99
67186;HTU21D;54116;53.518;49.398;2023-07-09T02:03:11;0.59;118.99
67186;HTU21D;54116;53.518;49.398;2023-07-09T02:05:37;0.46;118.99
67186;HTU21D;54116;53.518;49.398;2023-07-09T02:08:04;0.58;118.99
67186;HTU21D;54116;53.518;49.398;2023-07-09T02:10:30;0.55;118.99
67186;HTU21D;54116;53.518;49.398;2023-07-09T02:12:56;0.71;118.99
67186;HTU21D;54116;53.518;49.398;2023-07-09T02:15:22;0.65;118.99
67186;HTU21D;54116;53.518;49.398;2023-07-09T02:17:51;0.62;118.99
67186;HTU21D;54116;53.518;49.398;2023-07-09T02:20:18;0.60;118.99
67186;HTU21D;54116;53.518;49.398;2023-07-09T02:22:50;0.59;118.99
67186;HTU21D;54116;53.518;49.398;2023-07-09T02:25:16;0.53;118.99
67186;HTU21D;54116;53.518;49.398;2023-07-09T02:27:45;0.64;118.99
67186;HTU21D;54116;53.518;49.398;2023-07-09T02:30:14;0.72;118.99
67186;HTU21D;54116;53.518;49.398;2023-07-09T02:32:40;0.61;118.99
67186;HTU21D;54116;53.518;49.398;2023-07-09T02:35:07;0.59;118.99
67186;HTU21D;54116;53.518;49.398;2023-07-09T02:37:33;0.54;118.99
67186;HTU21D;54116;53.518;49.398;2023-07-09T02:39:59;0.67;118.99
67186;HTU21D;54116;53.518;49.398;2023-07-09T02:42:25;0.52;118.99
67186;HTU21D;54116;53.518;49.398;2023-07-09T02:44:51;0.65;118.99
67186;HTU21D;54116;53.518;49.398;2023-07-09T02:47:18;0.75;118.99
67186;HTU21D;54116;53.518;49.398;2023-07-09T02:49:44;0.69;118.99
67186;HTU21D;54116;53.518;49.398;2023-07-09T02:52:10;0.84;118.99
67186;HTU21D;54116;53.518;49.398;2023-07-09T02:54:40;0.78;118.99
67186;HTU21D;54116;53.518;49.398;2023-07-09T02:57:06;0.91;118.99
67186;HTU21D;54116;53.518;49.398;2023-07-09T02:59:35;0.78;118.99
67186;HTU21D;54116;53.518;49.398;2023-07-09T03:02:01;0.78;118.99
67186;HTU21D;54116;53.518;49.398;2023-07-09T03:04:30;0.95;118.99
67186;HTU21D;54116;53.518;49.398;2023-07-09T03:06:59;0.86;118.99
67186;HTU21D;54116;53.518;49.398;2023-07-09T03:09:25;0.94;118.99
67186;HTU21D;54116;53.518;49.398;2023-07-09T03:11:52;1.19;118.99
67186;HTU21D;54116;53.518;49.398;2023-07-09T03:14:19;1.31;118.99
67186;HTU21D;54116;53.518;49.398;2023-07-09T03:16:50;1.28;118.99
67186;HTU21D;54116;53.518;49.398;2023-07-09T03:19:16;1.39;118.99
67186;HTU21D;54116;53.518;49.398;2023-07-09T03:21:44;1.48;118.99
67186;HTU21D;54116;53.518;49.398;2023-07-09T03:24:10;1.60;118.99
67186;HTU21D;54116;53.518;49.398;2023-07-09T03:26:36;1.72;118.99
67186;HTU21D;54116;53.518;49.398;2023-07-09T03:29:05;1.84;118.99
67186;HTU21D;54116;53.518;49.398;2023-07-09T03:31:31;2.05;118.99
67186;HTU21D;54116;53.518;49.398;2023-07-09T03:34:02;2.25;118.99
67186;HTU21D;54116;53.518;49.398;2023-07-09T03:36:28;2.39;118.99
67186;HTU21D;54116;53.518;49.398;2023-07-09T03:38:54;2.60;118.99
67186;HTU21D;54116;53.518;49.398;2023-07-09T03:41:24;2.76;118.99
67186;HTU21D;54116;53.518;49.398;2023-07-09T03:43:53;2.97;118.99
67186;HTU21D;54116;53.518;49.398;2023-07-09T03:46:19;3.36;118.99
67186;HTU21D;54116;53.518;49.398;2023-07-09T03:48:51;3.57;118.99
67186;HTU21D;54116;53.518;49.398;2023-07-09T03:51:20;3.71;118.99
67186;HTU21D;54116;53.518;49.398;2023-07-09T03:53:46;3.71;118.99
67186;HTU21D;54116;53.518;49.398;2023-07-09T03:56:15;3.75;118.99
67186;HTU21D;54116;53.518;49.398;2023-07-09T03:58:43;3.63;118.99
67186;HTU21D;54116;53.518;49.398;2023-07-09T04:01:12;3.43;118.99
67186;HTU21D;54116;53.518;49.398;2023-07-09T04:03:39;3.24;118.99
67186;HTU21D;54116;53.518;49.398;2023-07-09T04:06:07;3.18;118.99
67186;HTU21D;54116;53.518;49.398;2023-07-09T04:08:33;3.16;118.99
67186;HTU21D;54116;53.518;49.398;2023-07-09T04:11:03;3.23;118.99
67186;HTU21D;54116;53.518;49.398;2023-07-09T04:13:29;3.23;118.99
67186;HTU21D;54116;53.518;49.398;2023-07-09T04:15:59;3.10;118.99
67186;HTU21D;54116;53.518;49.398;2023-07-09T04:18:28;3.23;118.99
67186;HTU21D;54116;53.518;49.398;2023-07-09T04:20:55;3.13;118.99
67186;HTU21D;54116;53.518;49.398;2023-07-09T04:23:24;3.31;118.99
67186;HTU21D;54116;53.518;49.398;2023-07-09T04:25:52;3.36;118.99
67186;HTU21D;54116;53.518;49.398;2023-07-09T04:28:18;3.55;118.99
67186;HTU21D;54116;53.518;49.398;2023-07-09T04:30:49;3.78;118.99
67186;HTU21D;54116;53.518;49.398;2023-07-09T04:33:17;4.07;118.99
67186;HTU21D;54116;53.518;49.398;2023-07-09T04:35:45;4.09;118.99
67186;HTU21D;54116;53.518;49.398;2023-07-09T04:38:13;4.69;118.99
67186;HTU21D;54116;53.518;49.398;2023-07-09T04:40:39;5.41;118.99
67186;HTU21D;54116;53.518;49.398;2023-07-09T04:43:08;5.77;118.99
67186;HTU21D;54116;53.518;49.398;2023-07-09T04:45:34;6.04;118.99
67186;HTU21D;54116;53.518;49.398;2023-07-09T04:48:00;6.28;118.99
67186;HTU21D;54116;53.518;49.398;2023-07-09T04:50:32;6.63;118.99
67186;HTU21D;54116;53.518;49.398;2023-07-09T04:52:59;6.55;118.99
67186;HTU21D;54116;53.518;49.398;2023-07-09T04:55:26;6.27;118.99
67186;HTU21D;54116;53.518;49.398;2023-07-09T04:57:55;6.34;118.99
67186;HTU21D;54116;53.518;49.398;2023-07-09T05:00:21;6.31;118.99
67186;HTU21D;54116;53.518;49.398;2023-07-09T05:02:48;6.61;118.99
67186;HTU21D;54116;53.518;49.398;2023-07-09T05:05:14;6.66;118.99
67186;HTU21D;54116;53.518;49.398;2023-07-09T05:07:43;6.66;118.99
67186;HTU21D;54116;53.518;49.398;2023-07-09T05:10:09;6.57;118.99
67186;HTU21D;54116;53.518;49.398;2023-07-09T05:12:35;6.42;118.99
67186;HTU21D;54116;53.518;49.398;2023-07-09T05:15:05;6.59;118.99
67186;HTU21D;54116;53.518;49.398;2023-07-09T05:17:34;6.67;118.99
67186;HTU21D;54116;53.518;49.398;2023-07-09T05:20:00;6.63;118.99
67186;HTU21D;54116;53.518;49.398;2023-07-09T05:22:29;6.34;118.99
67186;HTU21D;54116;53.518;49.398;2023-07-09T05:24:55;6.31;118.99
67186;HTU21D;54116;53.518;49.398;2023-07-09T05:27:24;5.87;118.99
67186;HTU21D;54116;53.518;49.398;2023-07-09T05:29:50;5.72;118.99
67186;HTU21D;54116;53.518;49.398;2023-07-09T05:32:16;5.84;118.99
67186;HTU21D;54116;53.518;49.398;2023-07-09T05:34:45;5.98;118.99
67186;HTU21D;54116;53.518;49.398;2023-07-09T05:37:14;6.15;118.99
67186;HTU21D;54116;53.518;49.398;2023-07-09T05:39:40;6.08;118.99
67186;HTU21D;54116;53.518;49.398;2023-07-09T05:42:06;6.27;118.99
67186;HTU21D;54116;53.518;49.398;2023-07-09T05:44:32;5.81;118.99
67186;HTU21D;54116;53.518;49.398;2023-07-09T05:47:01;5.69;118.99
67186;HTU21D;54116;53.518;49.398;2023-07-09T05:49:28;5.81;118.99
67186;HTU21D;54116;53.518;49.398;2023-07-09T05:51:54;6.24;118.99
67186;HTU21D;54116;53.518;49.398;2023-07-09T05:54:22;5.91;118.99
67186;HTU21D;54116;53.518;49.398;2023-07-09T05:56:48;5.86;118.99
67186;HTU21D;54116;53.518;49.398;2023-07-09T05:59:15;5.72;118.99
67186;HTU21D;54116;53.518;49.398;2023-07-09T06:01:41;5.50;118.99
67186;HTU21D;54116;53.518;49.398;2023-07-09T06:04:07;5.39;118.99
67186;HTU21D;54116;53.518;49.398;2023-07-09T06:06:33;5.67;118.99
67186;HTU21D;54116;53.518;49.398;2023-07-09T06:09:05;5.65;118.99
67186;HTU21D;54116;53.518;49.398;2023-07-09T06:11:31;5.67;118.99
67186;HTU21D;54116;53.518;49.398;2023-07-09T06:13:58;5.69;118.99
67186;HTU21D;54116;53.518;49.398;2023-07-09T06:16:24;5.76;118.99
67186;HTU21D;54116;53.518;49.398;2023-07-09T06:18:56;5.84;118.99
67186;HTU21D;54116;53.518;49.398;2023-07-09T06:21:22;5.82;118.99
67186;HTU21D;54116;53.518;49.398;2023-07-09T06:23:48;5.59;118.99
67186;HTU21D;54116;53.518;49.398;2023-07-09T06:26:14;5.77;118.99
67186;HTU21D;54116;53.518;49.398;2023-07-09T06:28:43;5.80;118.99
67186;HTU21D;54116;53.518;49.398;2023-07-09T06:31:09;5.83;118.99
67186;HTU21D;54116;53.518;49.398;2023-07-09T06:33:38;5.71;118.99
67186;HTU21D;54116;53.518;49.398;2023-07-09T06:36:08;5.72;118.99
67186;HTU21D;54116;53.518;49.398;2023-07-09T06:38:35;5.71;118.99
67186;HTU21D;54116;53.518;49.398;2023-07-09T06:41:04;5.72;118.99
67186;HTU21D;54116;53.518;49.398;2023-07-09T06:43:30;5.79;118.99
67186;HTU21D;54116;53.518;49.398;2023-07-09T06:45:59;5.94;118.99
67186;HTU21D;54116;53.518;49.398;2023-07-09T06:48:27;6.07;118.99
67186;HTU21D;54116;53.518;49.398;2023-07-09T06:50:58;6.04;118.99
67186;HTU21D;54116;53.518;49.398;2023-07-09T06:53:26;5.93;118.99
67186;HTU21D;54116;53.518;49.398;2023-07-09T06:55:53;6.08;118.99
67186;HTU21D;54116;53.518;49.398;2023-07-09T06:58:22;6.08;118.99
67186;HTU21D;54116;53.518;49.398;2023-07-09T07:00:53;5.99;118.99
67186;HTU21D;54116;53.518;49.398;2023-07-09T07:03:23;5.98;118.99
67186;HTU21D;54116;53.518;49.398;2023-07-09T07:05:52;6.24;118.99
67186;HTU21D;54116;53.518;49.398;2023-07-09T07:08:21;6.52;118.99
67186;HTU21D;54116;53.518;49.398;2023-07-09T07:10:56;6.16;118.99
67186;HTU21D;54116;53.518;49.398;2023-07-09T07:13:29;5.98;118.99
67186;HTU21D;54116;53.518;49.398;2023-07-09T07:15:55;5.78;118.99
67186;HTU21D;54116;53.518;49.398;2023-07-09T07:18:21;5.67;118.99
67186;HTU21D;54116;53.518;49.398;2023-07-09T07:20:47;5.74;118.99
67186;HTU21D;54116;53.518;49.398;2023-07-09T07:23:17;5.64;118.99
67186;HTU21D;54116;53.518;49.398;2023-07-09T07:26:02;5.47;118.99
67186;HTU21D;54116;53.518;49.398;2023-07-09T07:28:50;5.47;118.99
67186;HTU21D;54116;53.518;49.398;2023-07-09T07:31:19;5.43;118.99
67186;HTU21D;54116;53.518;49.398;2023-07-09T07:33:45;5.46;118.99
67186;HTU21D;54116;53.518;49.398;2023-07-09T07:36:11;5.50;118.99
67186;HTU21D;54116;53.518;49.398;2023-07-09T07:38:37;5.37;118.99
67186;HTU21D;54116;53.518;49.398;2023-07-09T07:41:04;5.49;118.99
67186;HTU21D;54116;53.518;49.398;2023-07-09T07:43:30;5.80;118.99
67186;HTU21D;54116;53.518;49.398;2023-07-09T07:46:00;5.85;118.99
67186;HTU21D;54116;53.518;49.398;2023-07-09T07:48:56;5.82;118.99
67186;HTU21D;54116;53.518;49.398;2023-07-09T07:51:42;6.05;118.99
67186;HTU21D;54116;53.518;49.398;2023-07-09T07:54:10;6.14;118.99
67186;HTU21D;54116;53.518;49.398;2023-07-09T07:56:36;6.05;118.99
67186;HTU21D;54116;53.518;49.398;2023-07-09T07:59:05;5.96;118.99
67186;HTU21D;54116;53.518;49.398;2023-07-09T08:01:36;6.05;118.99
67186;HTU21D;54116;53.518;49.398;2023-07-09T08:04:02;6.08;118.99
67186;HTU21D;54116;53.518;49.398;2023-07-09T08:06:31;6.36;118.99
67186;HTU21D;54116;53.518;49.398;2023-07-09T08:08:58;6.29;118.99
67186;HTU21D;54116;53.518;49.398;2023-07-09T08:11:24;6.16;118.99
67186;HTU21D;54116;53.518;49.398;2023-07-09T08:13:56;6.21;118.99
67186;HTU21D;54116;53.518;49.398;2023-07-09T08:16:24;6.40;118.99
67186;HTU21D;54116;53.518;49.398;2023-07-09T08:18:52;6.31;118.99
67186;HTU21D;54116;53.518;49.398;2023-07-09T08:21:21;6.39;118.99
67186;HTU21D;54116;53.518;49.398;2023-07-09T08:23:49;6.57;118.99
67186;HTU21D;54116;53.518;49.398;2023-07-09T08:26:15;6.25;118.99
67186;HTU21D;54116;53.518;49.398;2023-07-09T08:28:41;6.36;118.99
67186;HTU21D;54116;53.518;49.398;2023-07-09T08:31:08;6.30;118.99
67186;HTU21D;54116;53.518;49.398;2023-07-09T08:33:34;6.39;118.99
67186;HTU21D;54116;53.518;49.398;2023-07-09T08:36:00;6.66;118.99
67186;HTU21D;54116;53.518;49.398;2023-07-09T08:38:29;6.90;118.99
67186;HTU21D;54116;53.518;49.398;2023-07-09T08:44:02;6.93;118.99
67186;HTU21D;54116;53.518;49.398;2023-07-09T08:46:56;6.61;118.99
67186;HTU21D;54116;53.518;49.398;2023-07-09T08:50:02;6.46;118.99
67186;HTU21D;54116;53.518;49.398;2023-07-09T08:52:44;6.28;118.99
67186;HTU21D;54116;53.518;49.398;2023-07-09T08:55:21;6.36;118.99
67186;HTU21D;54116;53.518;49.398;2023-07-09T08:57:58;6.54;118.99
67186;HTU21D;54116;53.518;49.398;2023-07-09T09:00:32;6.53;118.99
67186;HTU21D;54116;53.518;49.398;2023-07-09T09:03:10;6.75;118.99
67186;HTU21D;54116;53.518;49.398;2023-07-09T09:05:42;6.64;118.99
67186;HTU21D;54116;53.518;49.398;2023-07-09T09:08:40;6.56;118.99
67186;HTU21D;54116;53.518;49.398;2023-07-09T09:11:19;6.63;118.99
67186;HTU21D;54116;53.518;49.398;2023-07-09T09:13:55;6.36;118.99
67186;HTU21D;54116;53.518;49.398;2023-07-09T09:16:26;6.31;118.99
67186;HTU21D;54116;53.518;49.398;2023-07-09T09:18:57;6.33;118.99
67186;HTU21D;54116;53.518;49.398;2023-07-09T09:21:34;6.24;118.99
67186;HTU21D;54116;53.518;49.398;2023-07-09T09:24:26;6.15;118.99
67186;HTU21D;54116;53.518;49.398;2023-07-09T09:26:57;6.28;118.99
67186;HTU21D;54116;53.518;49.398;2023-07-09T09:29:25;6.29;118.99
67186;HTU21D;54116;53.518;49.398;2023-07-09T09:31:55;6.27;118.99
67186;HTU21D;54116;53.518;49.398;2023-07-09T09:34:29;6.35;118.99
67186;HTU21D;54116;53.518;49.398;2023-07-09T09:37:10;6.37;118.99
67186;HTU21D;54116;53.518;49.398;2023-07-09T09:39:38;6.31;118.99
67186;HTU21D;54116;53.518;49.398;2023-07-09T09:42:10;6.33;118.99
67186;HTU21D;54116;53.518;49.398;2023-07-09T09:44:44;6.35;118.99
67186;HTU21D;54116;53.518;49.398;2023-07-09T09:47:13;6.31;118.99
67186;HTU21D;54116;53.518;49.398;2023-07-09T09:49:40;6.49;118.99
67186;HTU21D;54116;53.518;49.398;2023-07-09T09:52:16;6.46;118.99
67186;HTU21D;54116;53.518;49.398;2023-07-09T09:54:55;6.58;118.99
67186;HTU21D;54116;53.518;49.398;2023-07-09T09:57:23;6.53;118.99
67186;HTU21D;54116;53.518;49.398;2023-07-09T09:59:50;6.41;118.99
67186;HTU21D;54116;53.518;49.398;2023-07-09T10:02:18;6.21;118.99
67186;HTU21D;54116;53.518;49.398;2023-07-09T10:04:45;6.20;118.99
67186;HTU21D;54116;53.518;49.398;2023-07-09T10:09:49;5.97;118.99
67186;HTU21D;54116;53.518;49.398;2023-07-09T10:17:51;5.82;118.99
67186;HTU21D;54116;53.518;49.398;2023-07-09T10:20:32;5.75;118.99
67186;HTU21D;54116;53.518;49.398;2023-07-09T10:26:11;5.67;118.99
67186;HTU21D;54116;53.518;49.398;2023-07-09T10:36:30;5.36;118.99
67186;HTU21D;54116;53.518;49.398;2023-07-09T10:39:12;5.37;118.99
67186;HTU21D;54116;53.518;49.398;2023-07-09T10:41:40;5.39;118.99
67186;HTU21D;54116;53.518;49.398;2023-07-09T10:44:16;5.42;118.99
67186;HTU21D;54116;53.518;49.398;2023-07-09T10:46:53;5.50;118.99
67186;HTU21D;54116;53.518;49.398;2023-07-09T10:49:21;5.54;118.99
67186;HTU21D;54116;53.518;49.398;2023-07-09T10:51:55;5.69;118.99
67186;HTU21D;54116;53.518;49.398;2023-07-09T10:58:03;5.75;118.99
67186;HTU21D;54116;53.518;49.398;2023-07-09T11:00:39;5.64;118.99
67186;HTU21D;54116;53.518;49.398;2023-07-09T11:03:37;5.69;118.99
67186;HTU21D;54116;53.518;49.398;2023-07-09T11:06:11;5.69;118.99
67186;HTU21D;54116;53.518;49.398;2023-07-09T11:08:40;5.63;118.99
67186;HTU21D;54116;53.518;49.398;2023-07-09T11:11:20;5.53;118.99
67186;HTU21D;54116;53.518;49.398;2023-07-09T11:14:03;5.46;118.99
67186;HTU21D;54116;53.518;49.398;2023-07-09T11:16:39;5.39;118.99
67186;HTU21D;54116;53.518;49.398;2023-07-09T11:19:16;5.33;118.99
67186;HTU21D;54116;53.518;49.398;2023-07-09T11:22:03;5.26;118.99
67186;HTU21D;54116;53.518;49.398;2023-07-09T11:24:45;5.24;118.99
67186;HTU21D;54116;53.518;49.398;2023-07-09T11:27:25;5.17;118.99
67186;HTU21D;54116;53.518;49.398;2023-07-09T11:30:03;5.26;118.99
67186;HTU21D;54116;53.518;49.398;2023-07-09T11:32:30;5.05;118.99
67186;HTU21D;54116;53.518;49.398;2023-07-09T11:35:08;5.01;118.99
67186;HTU21D;54116;53.518;49.398;2023-07-09T11:37:44;4.94;118.99
67186;HTU21D;54116;53.518;49.398;2023-07-09T11:40:13;4.90;118.99
67186;HTU21D;54116;53.518;49.398;2023-07-09T11:42:57;4.84;118.99
67186;HTU21D;54116;53.518;49.398;2023-07-09T11:45:30;4.81;118.99
67186;HTU21D;54116;53.518;49.398;2023-07-09T11:50:51;4.95;118.99
67186;HTU21D;54116;53.518;49.398;2023-07-09T11:56:00;4.88;118.99
67186;HTU21D;54116;53.518;49.398;2023-07-09T11:58:26;4.87;118.99
67186;HTU21D;54116;53.518;49.398;2023-07-09T12:00:57;4.92;118.99
67186;HTU21D;54116;53.518;49.398;2023-07-09T12:03:25;4.90;118.99
67186;HTU21D;54116;53.518;49.398;2023-07-09T12:05:54;4.92;118.99
67186;HTU21D;54116;53.518;49.398;2023-07-09T12:08:32;4.88;118.99
67186;HTU21D;54116;53.518;49.398;2023-07-09T12:10:58;4.90;118.99
67186;HTU21D;54116;53.518;49.398;2023-07-09T12:13:27;5.07;118.99
67186;HTU21D;54116;53.518;49.398;2023-07-09T12:15:56;5.06;118.99
67186;HTU21D;54116;53.518;49.398;2023-07-09T12:18:24;4.94;118.99
67186;HTU21D;54116;53.518;49.398;2023-07-09T12:20:52;5.00;118.99
67186;HTU21D;54116;53.518;49.398;2023-07-09T12:23:33;5.00;118.99
67186;HTU21D;54116;53.518;49.398;2023-07-09T12:26:03;5.15;118.99
67186;HTU21D;54116;53.518;49.398;2023-07-09T12:28:33;4.96;118.99
67186;HTU21D;54116;53.518;49.398;2023-07-09T12:30:59;5.11;118.99
67186;HTU21D;54116;53.518;49.398;2023-07-09T12:33:29;5.01;118.99
67186;HTU21D;54116;53.518;49.398;2023-07-09T12:36:00;5.10;118.99
67186;HTU21D;54116;53.518;49.398;2023-07-09T12:38:45;5.21;118.99
67186;HTU21D;54116;53.518;49.398;2023-07-09T12:41:49;5.19;118.99
67186;HTU21D;54116;53.518;49.398;2023-07-09T12:44:17;5.21;118.99
67186;HTU21D;54116;53.518;49.398;2023-07-09T12:46:44;5.18;118.99
67186;HTU21D;54116;53.518;49.398;2023-07-09T12:49:41;5.25;118.99
67186;HTU21D;54116;53.518;49.398;2023-07-09T12:52:29;5.40;118.99
67186;HTU21D;54116;53.518;49.398;2023-07-09T12:55:01;5.27;118.99
67186;HTU21D;54116;53.518;49.398;2023-07-09T12:57:28;5.31;118.99
67186;HTU21D;54116;53.518;49.398;2023-07-09T12:59:56;5.27;118.99
67186;HTU21D;54116;53.518;49.398;2023-07-09T13:02:29;5.33;118.99
67186;HTU21D;54116;53.518;49.398;2023-07-09T13:05:04;5.49;118.99
67186;HTU21D;54116;53.518;49.398;2023-07-09T13:07:38;5.32;118.99
67186;HTU21D;54116;53.518;49.398;2023-07-09T13:10:27;5.30;118.99
67186;HTU21D;54116;53.518;49.398;2023-07-09T13:12:56;5.28;118.99
67186;HTU21D;54116;53.518;49.398;2023-07-09T13:15:28;5.31;118.99
67186;HTU21D;54116;53.518;49.398;2023-07-09T13:17:58;5.33;118.99
67186;HTU21D;54116;53.518;49.398;2023-07-09T13:20:29;5.30;118.99
67186;HTU21D;54116;53.518;49.398;2023-07-09T13:22:57;5.47;118.99
67186;HTU21D;54116;53.518;49.398;2023-07-09T13:25:24;5.30;118.99
67186;HTU21D;54116;53.518;49.398;2023-07-09T13:27:53;5.23;118.99
67186;HTU21D;54116;53.518;49.398;2023-07-09T13:30:19;5.25;118.99
67186;HTU21D;54116;53.518;49.398;2023-07-09T13:32:48;5.19;118.99
67186;HTU21D;54116;53.518;49.398;2023-07-09T13:35:18;5.13;118.99
67186;HTU21D;54116;53.518;49.398;2023-07-09T13:37:46;5.19;118.99
67186;HTU21D;54116;53.518;49.398;2023-07-09T13:40:14;5.13;118.99
67186;HTU21D;54116;53.518;49.398;2023-07-09T13:42:44;5.10;118.99
67186;HTU21D;54116;53.518;49.398;2023-07-09T13:45:23;5.11;118.99
67186;HTU21D;54116;53.518;49.398;2023-07-09T13:47:51;5.06;118.99
67186;HTU21D;54116;53.518;49.398;2023-07-09T13:50:20;4.97;118.99
67186;HTU21D;54116;53.518;49.398;2023-07-09T13:52:48;4.89;118.99
67186;HTU21D;54116;53.518;49.398;2023-07-09T13:55:22;4.79;118.99
67186;HTU21D;54116;53.518;49.398;2023-07-09T13:57:52;4.86;118.99
67186;HTU21D;54116;53.518;49.398;2023-07-09T14:00:19;4.69;118.99
67186;HTU21D;54116;53.518;49.398;2023-07-09T14:02:46;4.66;118.99
67186;HTU21D;54116;53.518;49.398;2023-07-09T14:05:13;4.61;118.99
67186;HTU21D;54116;53.518;49.398;2023-07-09T14:07:41;4.71;118.99
67186;HTU21D;54116;53.518;49.398;2023-07-09T14:10:14;4.58;118.99
67186;HTU21D;54116;53.518;49.398;2023-07-09T14:12:45;4.53;118.99
67186;HTU21D;54116;53.518;49.398;2023-07-09T14:15:17;4.51;118.99
67186;HTU21D;54116;53.518;49.398;2023-07-09T14:17:47;3.95;118.99
67186;HTU21D;54116;53.518;49.398;2023-07-09T14:20:17;3.42;118.99
67186;HTU21D;54116;53.518;49.398;2023-07-09T14:22:44;3.24;118.99
67186;HTU21D;54116;53.518;49.398;2023-07-09T14:25:18;3.08;118.99
67186;HTU21D;54116;53.518;49.398;2023-07-09T14:27:52;2.59;118.99
67186;HTU21D;54116;53.518;49.398;2023-07-09T14:30:24;2.43;118.99
67186;HTU21D;54116;53.518;49.398;2023-07-09T14:32:54;2.43;118.99
67186;HTU21D;54116;53.518;49.398;2023-07-09T14:35:26;2.25;118.99
67186;HTU21D;54116;53.518;49.398;2023-07-09T14:37:53;2.08;118.99
67186;HTU21D;54116;53.518;49.398;2023-07-09T14:40:28;2.05;118.99
67186;HTU21D;54116;53.518;49.398;2023-07-09T14:42:57;2.17;118.99
67186;HTU21D;54116;53.518;49.398;2023-07-09T14:45:32;2.28;118.99
67186;HTU21D;54116;53.518;49.398;2023-07-09T14:47:59;2.38;118.99
67186;HTU21D;54116;53.518;49.398;2023-07-09T14:50:30;2.50;118.99
67186;HTU21D;54116;53.518;49.398;2023-07-09T14:53:00;2.59;118.99
67186;HTU21D;54116;53.518;49.398;2023-07-09T14:55:27;2.68;118.99
67186;HTU21D;54116;53.518;49.398;2023-07-09T14:57:55;2.72;118.99
67186;HTU21D;54116;53.518;49.398;2023-07-09T15:00:25;2.72;118.99
67186;HTU21D;54116;53.518;49.398;2023-07-09T15:02:52;2.80;118.99
67186;HTU21D;54116;53.518;49.398;2023-07-09T15:05:24;2.89;118.99
67186;HTU21D;54116;53.518;49.398;2023-07-09T15:07:51;2.85;118.99
67186;HTU21D;54116;53.518;49.398;2023-07-09T15:10:22;2.94;118.99
67186;HTU21D;54116;53.518;49.398;2023-07-09T15:12:49;3.13;118.99
67186;HTU21D;54116;53.518;49.398;2023-07-09T15:15:36;3.08;118.99
67186;HTU21D;54116;53.518;49.398;2023-07-09T15:18:11;3.06;118.99
67186;HTU21D;54116;53.518;49.398;2023-07-09T15:20:38;3.05;118.99
67186;HTU21D;54116;53.518;49.398;2023-07-09T15:23:05;2.98;118.99
67186;HTU21D;54116;53.518;49.398;2023-07-09T15:25:37;2.95;118.99
67186;HTU21D;54116;53.518;49.398;2023-07-09T15:28:10;2.88;118.99
67186;HTU21D;54116;53.518;49.398;2023-07-09T15:30:40;2.88;118.99
67186;HTU21D;54116;53.518;49.398;2023-07-09T15:33:13;3.01;118.99
67186;HTU21D;54116;53.518;49.398;2023-07-09T15:35:43;3.06;118.99
67186;HTU21D;54116;53.518;49.398;2023-07-09T15:38:32;2.91;118.99
67186;HTU21D;54116;53.518;49.398;2023-07-09T15:41:10;2.94;118.99
67186;HTU21D;54116;53.518;49.398;2023-07-09T15:43:37;3.05;118.99
67186;HTU21D;54116;53.518;49.398;2023-07-09T15:46:04;2.93;118.99
67186;HTU21D;54116;53.518;49.398;2023-07-09T15:48:33;3.04;118.99
67186;HTU21D;54116;53.518;49.398;2023-07-09T15:51:01;2.90;118.99
67186;HTU21D;54116;53.518;49.398;2023-07-09T15:53:28;2.95;118.99
67186;HTU21D;54116;53.518;49.398;2023-07-09T15:56:00;2.91;118.99